Tennessee — FM3908 — position and weather

sailwx.info

Track history (hours):
 
Tides and Currents Weather Stations Pressure Air Temp Water Temp Dewpoint Dewpoint Depression Visibility Wind Speed Wind Dir Waves Ship Positions

Tennessee

Last reported at 2018-Apr-17 21:05 UTC. Time now 2018-Apr-23 17:21 UTC.
Position N 43°29' E 004°45'.

Length 80 m; draft 0.3 m.

Type: Ship. MMSI: 227095770.

Date/timePositionNaut miles runAvg speedWind from/ knotsBaromVisibWave heightAir tempDewpointWater temp
2018-Apr-17 21:05N 43°29' E 004°45'1 6.5
2018-Apr-17 20:57N 43°28' E 004°45'2 5.5
2018-Apr-17 20:30N 43°25' E 004°45'1 1.4
2018-Apr-17 20:00N 43°26' E 004°46'6 3.2
2018-Apr-17 18:16N 43°26' E 004°53'0 0.0
2018-Apr-17 17:59N 43°26' E 004°53'0 0.0
2018-Apr-17 15:12N 43°26' E 004°53'0 0.0
2018-Apr-17 14:55N 43°26' E 004°53'0 0.0
2018-Apr-17 13:43N 43°26' E 004°53'0 0.0
2018-Apr-17 12:09N 43°26' E 004°53'6 3.1
2018-Apr-17 10:21N 43°26' E 004°46'0 0.1
2018-Apr-17 10:00N 43°26' E 004°46'0 0.0
2018-Apr-17 09:30N 43°26' E 004°46'0 0.0
2018-Apr-17 09:00N 43°26' E 004°46'0 0.0
2018-Apr-17 08:29N 43°26' E 004°46'0 0.0
2018-Apr-17 07:48N 43°26' E 004°46'0 0.0
2018-Apr-17 07:29N 43°26' E 004°46'0 0.0
2018-Apr-17 06:57N 43°26' E 004°46'0 0.0
2018-Apr-17 06:27N 43°26' E 004°46'0 0.1
2018-Apr-17 06:00N 43°26' E 004°46'0 0.6
2018-Apr-17 05:29N 43°25' E 004°45'0 0.0
2018-Apr-17 05:00N 43°25' E 004°45'0 0.0
2018-Apr-17 04:30N 43°25' E 004°45'0 0.0
2018-Apr-17 04:00N 43°25' E 004°45'0 0.0
2018-Apr-17 03:30N 43°25' E 004°45'0 0.0
2018-Apr-17 03:00N 43°25' E 004°45'0 0.0
2018-Apr-17 02:30N 43°25' E 004°45'0 0.0
2018-Apr-17 02:00N 43°25' E 004°45'0 0.0
2018-Apr-17 01:30N 43°25' E 004°45'0 0.0
2018-Apr-17 01:00N 43°25' E 004°45'0 0.0
2018-Apr-17 00:30N 43°25' E 004°45'0 0.0
2018-Apr-17 00:00N 43°25' E 004°45'0 0.0
2018-Apr-16 23:30N 43°25' E 004°45'0 0.0
2018-Apr-16 23:00N 43°25' E 004°45'0 0.0
2018-Apr-16 22:30N 43°25' E 004°45'0 0.0
2018-Apr-16 22:00N 43°25' E 004°45'0 0.0
2018-Apr-16 21:28N 43°25' E 004°45'0 0.0
2018-Apr-16 21:00N 43°25' E 004°45'0 0.0
2018-Apr-16 20:30N 43°25' E 004°45'0 0.0
2018-Apr-16 19:57N 43°25' E 004°45'0 0.0
2018-Apr-16 19:30N 43°25' E 004°45'0 0.0
2018-Apr-16 18:56N 43°25' E 004°45'0 0.0
2018-Apr-16 18:29N 43°25' E 004°45'0 0.0
2018-Apr-16 18:00N 43°25' E 004°45'0 0.0
2018-Apr-16 17:30N 43°25' E 004°45'0 0.0
2018-Apr-16 17:00N 43°25' E 004°45'0 0.0
2018-Apr-16 16:29N 43°25' E 004°45'0 0.0
2018-Apr-16 16:00N 43°25' E 004°45'0 0.0
2018-Apr-16 15:30N 43°25' E 004°45'0 0.0
2018-Apr-16 15:00N 43°25' E 004°45'0 0.0
2018-Apr-16 14:30N 43°25' E 004°45'0 0.0
2018-Apr-16 14:00N 43°25' E 004°45'0 0.0
2018-Apr-16 13:30N 43°25' E 004°45'0 0.0
2018-Apr-16 13:00N 43°25' E 004°45'0 0.0
2018-Apr-16 12:30N 43°25' E 004°45'0 0.0
2018-Apr-16 12:00N 43°25' E 004°45'0 0.0
2018-Apr-16 11:30N 43°25' E 004°45'0 0.0
2018-Apr-16 11:00N 43°25' E 004°45'0 0.0
2018-Apr-16 10:30N 43°25' E 004°45'0 0.0
2018-Apr-16 10:00N 43°25' E 004°45'0 0.0
2018-Apr-16 09:30N 43°25' E 004°45'0 0.0
2018-Apr-16 08:59N 43°25' E 004°45'0 0.0
2018-Apr-16 08:30N 43°25' E 004°45'0 0.0
2018-Apr-16 08:00N 43°25' E 004°45'0 0.0
2018-Apr-16 07:30N 43°25' E 004°45'0 0.0
2018-Apr-16 06:38N 43°25' E 004°45'0 0.0
2018-Apr-16 06:25N 43°25' E 004°45'0 0.0
2018-Apr-16 06:00N 43°25' E 004°45'0 0.0
2018-Apr-16 05:30N 43°25' E 004°45'0 0.0
2018-Apr-16 04:59N 43°25' E 004°45'0 0.0
2018-Apr-16 04:30N 43°25' E 004°45'0 0.0
2018-Apr-16 04:00N 43°25' E 004°45'0 0.0
2018-Apr-16 03:30N 43°25' E 004°45'0 0.0
2018-Apr-16 03:00N 43°25' E 004°45'0 0.0
2018-Apr-16 02:30N 43°25' E 004°45'0 0.0
2018-Apr-16 02:00N 43°25' E 004°45'0 0.0
2018-Apr-16 01:30N 43°25' E 004°45'0 0.0
2018-Apr-16 01:00N 43°25' E 004°45'0 0.0
2018-Apr-16 00:30N 43°25' E 004°45'0 0.0
2018-Apr-16 00:00N 43°25' E 004°45'0 0.0
2018-Apr-15 23:30N 43°25' E 004°45'0 0.0
2018-Apr-15 22:57N 43°25' E 004°45'0 0.0
2018-Apr-15 22:30N 43°25' E 004°45'0 0.0
2018-Apr-15 22:00N 43°25' E 004°45'0 0.0
2018-Apr-15 21:30N 43°25' E 004°45'0 0.0
2018-Apr-15 20:59N 43°25' E 004°45'0 0.0
2018-Apr-15 20:30N 43°25' E 004°45'0 0.0
2018-Apr-15 20:00N 43°25' E 004°45'0 0.0
2018-Apr-15 19:29N 43°25' E 004°45'0 0.0
2018-Apr-15 19:00N 43°25' E 004°45'0 0.0
2018-Apr-15 18:30N 43°25' E 004°45'0 0.0
2018-Apr-15 18:00N 43°25' E 004°45'2 3.0
2018-Apr-15 17:27N 43°27' E 004°45'  
Track history (hours):
 
Tides and Currents Weather Stations Pressure Air Temp Water Temp Dewpoint Dewpoint Depression Visibility Wind Speed Wind Dir Waves Ship Positions

Tennessee

Last reported at 2018-Apr-17 21:05 UTC. Time now 2018-Apr-23 17:21 UTC.
Position N 43°29' E 004°45'.

Length 80 m; draft 0.3 m.

Type: Ship. MMSI: 227095770.

Date/timePositionNaut miles runAvg speedWind from/ knotsBaromVisibWave heightAir tempDewpointWater temp
2018-Apr-17 21:05N 43°29' E 004°45'1 6.5
2018-Apr-17 20:57N 43°28' E 004°45'2 5.5
2018-Apr-17 20:30N 43°25' E 004°45'1 1.4
2018-Apr-17 20:00N 43°26' E 004°46'6 3.2
2018-Apr-17 18:16N 43°26' E 004°53'0 0.0
2018-Apr-17 17:59N 43°26' E 004°53'0 0.0
2018-Apr-17 15:12N 43°26' E 004°53'0 0.0
2018-Apr-17 14:55N 43°26' E 004°53'0 0.0
2018-Apr-17 13:43N 43°26' E 004°53'0 0.0
2018-Apr-17 12:09N 43°26' E 004°53'6 3.1
2018-Apr-17 10:21N 43°26' E 004°46'0 0.1
2018-Apr-17 10:00N 43°26' E 004°46'0 0.0
2018-Apr-17 09:30N 43°26' E 004°46'0 0.0
2018-Apr-17 09:00N 43°26' E 004°46'0 0.0
2018-Apr-17 08:29N 43°26' E 004°46'0 0.0
2018-Apr-17 07:48N 43°26' E 004°46'0 0.0
2018-Apr-17 07:29N 43°26' E 004°46'0 0.0
2018-Apr-17 06:57N 43°26' E 004°46'0 0.0
2018-Apr-17 06:27N 43°26' E 004°46'0 0.1
2018-Apr-17 06:00N 43°26' E 004°46'0 0.6
2018-Apr-17 05:29N 43°25' E 004°45'0 0.0
2018-Apr-17 05:00N 43°25' E 004°45'0 0.0
2018-Apr-17 04:30N 43°25' E 004°45'0 0.0
2018-Apr-17 04:00N 43°25' E 004°45'0 0.0
2018-Apr-17 03:30N 43°25' E 004°45'0 0.0
2018-Apr-17 03:00N 43°25' E 004°45'0 0.0
2018-Apr-17 02:30N 43°25' E 004°45'0 0.0
2018-Apr-17 02:00N 43°25' E 004°45'0 0.0
2018-Apr-17 01:30N 43°25' E 004°45'0 0.0
2018-Apr-17 01:00N 43°25' E 004°45'0 0.0
2018-Apr-17 00:30N 43°25' E 004°45'0 0.0
2018-Apr-17 00:00N 43°25' E 004°45'0 0.0
2018-Apr-16 23:30N 43°25' E 004°45'0 0.0
2018-Apr-16 23:00N 43°25' E 004°45'0 0.0
2018-Apr-16 22:30N 43°25' E 004°45'0 0.0
2018-Apr-16 22:00N 43°25' E 004°45'0 0.0
2018-Apr-16 21:28N 43°25' E 004°45'0 0.0
2018-Apr-16 21:00N 43°25' E 004°45'0 0.0
2018-Apr-16 20:30N 43°25' E 004°45'0 0.0
2018-Apr-16 19:57N 43°25' E 004°45'0 0.0
2018-Apr-16 19:30N 43°25' E 004°45'0 0.0
2018-Apr-16 18:56N 43°25' E 004°45'0 0.0
2018-Apr-16 18:29N 43°25' E 004°45'0 0.0
2018-Apr-16 18:00N 43°25' E 004°45'0 0.0
2018-Apr-16 17:30N 43°25' E 004°45'0 0.0
2018-Apr-16 17:00N 43°25' E 004°45'0 0.0
2018-Apr-16 16:29N 43°25' E 004°45'0 0.0
2018-Apr-16 16:00N 43°25' E 004°45'0 0.0
2018-Apr-16 15:30N 43°25' E 004°45'0 0.0
2018-Apr-16 15:00N 43°25' E 004°45'0 0.0
2018-Apr-16 14:30N 43°25' E 004°45'0 0.0
2018-Apr-16 14:00N 43°25' E 004°45'0 0.0
2018-Apr-16 13:30N 43°25' E 004°45'0 0.0
2018-Apr-16 13:00N 43°25' E 004°45'0 0.0
2018-Apr-16 12:30N 43°25' E 004°45'0 0.0
2018-Apr-16 12:00N 43°25' E 004°45'0 0.0
2018-Apr-16 11:30N 43°25' E 004°45'0 0.0
2018-Apr-16 11:00N 43°25' E 004°45'0 0.0
2018-Apr-16 10:30N 43°25' E 004°45'0 0.0
2018-Apr-16 10:00N 43°25' E 004°45'0 0.0
2018-Apr-16 09:30N 43°25' E 004°45'0 0.0
2018-Apr-16 08:59N 43°25' E 004°45'0 0.0
2018-Apr-16 08:30N 43°25' E 004°45'0 0.0
2018-Apr-16 08:00N 43°25' E 004°45'0 0.0
2018-Apr-16 07:30N 43°25' E 004°45'0 0.0
2018-Apr-16 06:38N 43°25' E 004°45'0 0.0
2018-Apr-16 06:25N 43°25' E 004°45'0 0.0
2018-Apr-16 06:00N 43°25' E 004°45'0 0.0
2018-Apr-16 05:30N 43°25' E 004°45'0 0.0
2018-Apr-16 04:59N 43°25' E 004°45'0 0.0
2018-Apr-16 04:30N 43°25' E 004°45'0 0.0
2018-Apr-16 04:00N 43°25' E 004°45'0 0.0
2018-Apr-16 03:30N 43°25' E 004°45'0 0.0
2018-Apr-16 03:00N 43°25' E 004°45'0 0.0
2018-Apr-16 02:30N 43°25' E 004°45'0 0.0
2018-Apr-16 02:00N 43°25' E 004°45'0 0.0
2018-Apr-16 01:30N 43°25' E 004°45'0 0.0
2018-Apr-16 01:00N 43°25' E 004°45'0 0.0
2018-Apr-16 00:30N 43°25' E 004°45'0 0.0
2018-Apr-16 00:00N 43°25' E 004°45'0 0.0
2018-Apr-15 23:30N 43°25' E 004°45'0 0.0
2018-Apr-15 22:57N 43°25' E 004°45'0 0.0
2018-Apr-15 22:30N 43°25' E 004°45'0 0.0
2018-Apr-15 22:00N 43°25' E 004°45'0 0.0
2018-Apr-15 21:30N 43°25' E 004°45'0 0.0
2018-Apr-15 20:59N 43°25' E 004°45'0 0.0
2018-Apr-15 20:30N 43°25' E 004°45'0 0.0
2018-Apr-15 20:00N 43°25' E 004°45'0 0.0
2018-Apr-15 19:29N 43°25' E 004°45'0 0.0
2018-Apr-15 19:00N 43°25' E 004°45'0 0.0
2018-Apr-15 18:30N 43°25' E 004°45'0 0.0
2018-Apr-15 18:00N 43°25' E 004°45'2 3.0
2018-Apr-15 17:27N 43°27' E 004°45'  

Dump ship's entire track history